createdAt,value
2022-08-19T00:00:00.699Z,20.48
2022-08-19T00:05:04.629Z,20.54
2022-08-19T00:10:13.547Z,20.39
2022-08-19T00:15:18.373Z,20.27
2022-08-19T00:20:22.119Z,20.16
2022-08-19T00:25:30.109Z,20.24
2022-08-19T00:30:32.843Z,20.66
2022-08-19T00:35:35.354Z,20.16
2022-08-19T00:40:57.181Z,20.06
2022-08-19T00:46:00.312Z,20.33
2022-08-19T00:51:21.055Z,20.12
2022-08-19T00:56:24.525Z,19.64
2022-08-19T01:01:27.064Z,20.08
2022-08-19T01:06:29.374Z,20.10
2022-08-19T01:11:50.824Z,19.88
2022-08-19T01:16:55.705Z,19.81
2022-08-19T01:22:14.276Z,20.08
2022-08-19T01:27:19.107Z,19.84
2022-08-19T01:32:41.739Z,19.75
2022-08-19T01:37:50.365Z,19.56
2022-08-19T01:43:11.133Z,19.65
2022-08-19T01:48:14.521Z,19.57
2022-08-19T01:53:16.927Z,19.52
2022-08-19T01:58:42.982Z,19.27
2022-08-19T02:03:45.335Z,19.28
2022-08-19T02:08:48.986Z,18.62
2022-08-19T02:14:12.057Z,19.10
2022-08-19T02:19:14.324Z,18.94
2022-08-19T02:24:16.616Z,18.86
2022-08-19T02:29:37.362Z,18.88
2022-08-19T02:34:39.603Z,18.33
2022-08-19T02:39:41.861Z,19.06
2022-08-19T02:44:44.110Z,18.38
2022-08-19T02:49:47.188Z,18.94
2022-08-19T02:55:08.889Z,18.82
2022-08-19T03:00:13.805Z,19.03
2022-08-19T03:05:46.922Z,18.92
2022-08-19T03:10:57.741Z,19.00
2022-08-19T03:16:20.042Z,18.98
2022-08-19T03:21:25.248Z,18.42
2022-08-19T03:26:49.497Z,19.10
2022-08-19T03:31:53.112Z,18.93
2022-08-19T03:36:57.678Z,18.95
2022-08-19T03:42:38.705Z,18.82
2022-08-19T03:47:40.954Z,18.85
2022-08-19T03:52:45.464Z,18.95
2022-08-19T03:57:50.114Z,19.07
2022-08-19T04:02:58.414Z,18.67
2022-08-19T04:08:02.859Z,19.00
2022-08-19T04:13:07.355Z,18.98
2022-08-19T04:18:11.124Z,19.37
2022-08-19T04:23:14.633Z,19.35
2022-08-19T04:28:17.245Z,19.28
2022-08-19T04:33:26.711Z,19.35
2022-08-19T04:38:31.020Z,19.15
2022-08-19T04:43:35.167Z,19.40
2022-08-19T04:48:43.438Z,18.99
2022-08-19T04:53:53.586Z,19.21
2022-08-19T04:58:57.518Z,19.48
2022-08-19T05:04:01.982Z,19.58
2022-08-19T05:09:06.062Z,19.83
2022-08-19T05:14:09.395Z,19.63
2022-08-19T05:19:30.009Z,19.74
2022-08-19T05:24:35.840Z,19.86
2022-08-19T05:29:56.553Z,19.96
2022-08-19T05:34:58.840Z,19.87
2022-08-19T05:40:01.186Z,20.12
2022-08-19T05:45:06.748Z,20.17
2022-08-19T05:50:09.494Z,20.30
2022-08-19T05:55:12.195Z,20.62
2022-08-19T06:00:33.167Z,20.52
2022-08-19T06:05:42.264Z,20.39
2022-08-19T06:10:54.603Z,20.52
2022-08-19T06:15:56.878Z,20.45
2022-08-19T06:21:17.744Z,20.81
2022-08-19T06:26:41.184Z,20.86
2022-08-19T06:31:51.044Z,20.75
2022-08-19T06:36:53.715Z,20.60
2022-08-19T06:42:17.707Z,21.00
2022-08-19T06:47:39.256Z,20.94
2022-08-19T06:52:41.532Z,20.96
2022-08-19T06:57:43.962Z,21.14
2022-08-19T07:02:52.144Z,21.32
2022-08-19T07:08:04.858Z,21.47
2022-08-19T07:13:07.685Z,21.29
2022-08-19T07:18:11.707Z,21.62
2022-08-19T07:23:16.126Z,21.57
2022-08-19T07:28:24.464Z,21.04
2022-08-19T07:33:28.092Z,21.33
2022-08-19T07:38:30.543Z,21.69
2022-08-19T07:43:34.890Z,21.54
2022-08-19T07:48:56.239Z,21.71
2022-08-19T07:54:05.178Z,21.82
2022-08-19T07:59:07.681Z,22.00
2022-08-19T08:04:28.471Z,21.70
2022-08-19T08:09:49.635Z,21.86
2022-08-19T08:14:55.980Z,21.52
2022-08-19T08:19:58.738Z,22.05
2022-08-19T08:25:13.873Z,21.96
2022-08-19T08:30:26.433Z,22.49
2022-08-19T08:35:34.704Z,22.43
2022-08-19T08:40:50.919Z,22.45
2022-08-19T08:46:17.567Z,22.78
2022-08-19T08:52:11.690Z,23.22
2022-08-19T08:57:19.395Z,23.13
2022-08-19T09:02:21.748Z,23.10
2022-08-19T09:07:47.298Z,23.16
2022-08-19T09:13:48.442Z,23.55
2022-08-19T09:19:00.082Z,23.49
2022-08-19T09:24:04.026Z,23.60
2022-08-19T09:29:07.108Z,23.55
2022-08-19T09:34:21.163Z,23.57
2022-08-19T09:39:24.334Z,23.79
2022-08-19T09:44:26.675Z,24.11
2022-08-19T09:49:29.359Z,24.07
2022-08-19T09:54:31.899Z,24.45
2022-08-19T09:59:34.676Z,24.79
2022-08-19T10:04:55.284Z,24.81
2022-08-19T10:09:57.852Z,24.77
2022-08-19T10:15:00.941Z,24.78
2022-08-19T10:20:05.495Z,25.08
2022-08-19T10:25:28.127Z,24.93
2022-08-19T10:30:30.571Z,24.63
2022-08-19T10:35:56.318Z,24.80
2022-08-19T10:40:59.394Z,25.19
2022-08-19T10:46:01.698Z,25.16
2022-08-19T10:51:23.623Z,24.93
2022-08-19T10:56:45.797Z,25.29
2022-08-19T11:01:48.726Z,25.13
2022-08-19T11:06:53.819Z,25.19
2022-08-19T11:11:57.504Z,25.44
2022-08-19T11:17:06.400Z,25.34
2022-08-19T11:22:31.777Z,25.18
2022-08-19T11:27:45.753Z,25.45
2022-08-19T11:32:51.611Z,25.25
2022-08-19T11:37:55.107Z,25.36
2022-08-19T11:42:57.862Z,25.33
2022-08-19T11:48:23.085Z,25.49
2022-08-19T11:53:25.692Z,25.39
2022-08-19T11:58:28.138Z,25.32
2022-08-19T12:03:30.630Z,25.38
2022-08-19T12:08:33.091Z,24.72
2022-08-19T12:13:36.100Z,25.22
2022-08-19T12:18:38.520Z,24.79
2022-08-19T12:23:41.958Z,25.20
2022-08-19T12:28:44.827Z,25.28
2022-08-19T12:33:47.887Z,25.24
2022-08-19T12:38:50.281Z,25.31
2022-08-19T12:43:52.933Z,25.18
2022-08-19T12:48:56.226Z,25.08
2022-08-19T12:53:58.864Z,25.21
2022-08-19T12:59:05.971Z,25.21
2022-08-19T13:04:27.103Z,25.04
2022-08-19T13:09:29.452Z,25.03
2022-08-19T13:14:32.700Z,25.17
2022-08-19T13:19:37.952Z,25.21
2022-08-19T13:24:43.907Z,25.11
2022-08-19T13:30:07.100Z,25.27
2022-08-19T13:35:12.719Z,25.31
2022-08-19T13:40:23.968Z,25.46
2022-08-19T13:45:28.594Z,25.51
2022-08-19T13:50:35.193Z,25.39
2022-08-19T13:55:56.220Z,25.37
2022-08-19T14:01:00.335Z,25.28
2022-08-19T14:06:03.149Z,25.40
2022-08-19T14:11:06.385Z,24.97
2022-08-19T14:16:11.300Z,25.17
2022-08-19T14:21:21.288Z,25.34
2022-08-19T14:26:26.481Z,25.16
2022-08-19T14:31:47.720Z,25.24
2022-08-19T14:36:50.102Z,25.14
2022-08-19T14:41:52.576Z,24.78
2022-08-19T14:46:54.850Z,24.93
2022-08-19T14:51:57.768Z,24.88
2022-08-19T14:57:00.030Z,24.72
2022-08-19T15:02:34.949Z,25.03
2022-08-19T15:07:38.866Z,24.99
2022-08-19T15:12:41.475Z,24.64
2022-08-19T15:17:46.458Z,24.57
2022-08-19T15:22:49.133Z,24.78
2022-08-19T15:27:51.469Z,24.55
2022-08-19T15:32:54.454Z,24.46
2022-08-19T15:37:57.381Z,24.54
2022-08-19T15:43:22.416Z,24.39
2022-08-19T15:48:24.633Z,24.44
2022-08-19T15:53:27.066Z,24.36
2022-08-19T15:58:48.252Z,24.26
2022-08-19T16:04:14.376Z,24.34
2022-08-19T16:09:36.821Z,24.09
2022-08-19T16:14:39.418Z,24.14
2022-08-19T16:19:41.930Z,24.15
2022-08-19T16:24:44.490Z,23.93
2022-08-19T16:29:47.289Z,24.01
2022-08-19T16:34:50.443Z,23.75
2022-08-19T16:39:52.916Z,24.00
2022-08-19T16:44:55.325Z,23.76
2022-08-19T16:50:22.170Z,23.88
2022-08-19T16:55:31.547Z,23.70
2022-08-19T17:00:34.749Z,23.64
2022-08-19T17:05:45.308Z,23.38
2022-08-19T17:11:16.455Z,23.17
2022-08-19T17:16:10.543Z,23.61
2022-08-19T17:21:13.462Z,23.42
2022-08-19T17:26:34.568Z,23.37
2022-08-19T17:31:57.996Z,23.21
2022-08-19T17:37:00.454Z,23.35
2022-08-19T17:42:03.308Z,23.20
2022-08-19T17:47:08.573Z,22.82
2022-08-19T17:52:12.111Z,23.04
2022-08-19T17:57:14.478Z,22.95
2022-08-19T18:02:17.093Z,23.17
2022-08-19T18:07:27.065Z,23.08
2022-08-19T18:12:29.430Z,22.75
2022-08-19T18:17:31.881Z,22.88
2022-08-19T18:22:41.015Z,22.97
2022-08-19T18:27:43.653Z,22.51
2022-08-19T18:33:15.260Z,22.79
2022-08-19T18:38:54.553Z,22.55
2022-08-19T18:44:34.360Z,22.52
2022-08-19T18:49:36.830Z,22.41
2022-08-19T18:54:40.761Z,22.51
2022-08-19T18:59:44.986Z,22.18
2022-08-19T19:04:47.466Z,22.12
2022-08-19T19:09:52.946Z,22.38
2022-08-19T19:15:13.724Z,22.20
2022-08-19T19:20:16.436Z,22.14
2022-08-19T19:25:20.306Z,22.21
2022-08-19T19:30:33.474Z,22.17
2022-08-19T19:35:35.877Z,22.00
2022-08-19T19:40:38.362Z,21.93
2022-08-19T19:45:40.776Z,21.39
2022-08-19T19:50:56.105Z,21.29
2022-08-19T19:56:17.268Z,21.58
2022-08-19T20:01:24.720Z,21.41
2022-08-19T20:06:29.357Z,21.36
2022-08-19T20:11:46.479Z,21.70
2022-08-19T20:16:49.724Z,21.50
2022-08-19T20:21:56.067Z,21.46
2022-08-19T20:27:00.705Z,21.22
2022-08-19T20:32:03.230Z,21.30
2022-08-19T20:37:11.728Z,21.13
2022-08-19T20:42:13.851Z,21.58
2022-08-19T20:47:16.105Z,21.00
2022-08-19T20:52:18.405Z,20.97
2022-08-19T20:57:20.671Z,21.00
2022-08-19T21:02:25.019Z,20.85
2022-08-19T21:07:46.851Z,21.03
2022-08-19T21:12:49.572Z,21.02
2022-08-19T21:17:52.192Z,20.75
2022-08-19T21:22:54.389Z,20.58
2022-08-19T21:28:15.381Z,20.69
2022-08-19T21:33:37.417Z,20.64
2022-08-19T21:38:54.683Z,20.62
2022-08-19T21:43:57.067Z,20.32
2022-08-19T21:48:59.820Z,20.17
2022-08-19T21:54:02.151Z,20.27
2022-08-19T21:59:04.982Z,20.20
2022-08-19T22:04:07.231Z,20.38
2022-08-19T22:09:09.473Z,20.33
2022-08-19T22:14:11.725Z,20.21
2022-08-19T22:19:15.206Z,20.33
2022-08-19T22:24:17.413Z,20.07
2022-08-19T22:29:25.106Z,19.98
2022-08-19T22:34:56.859Z,20.08
2022-08-19T22:40:00.772Z,20.05
2022-08-19T22:45:03.784Z,19.84
2022-08-19T22:50:08.450Z,19.88
2022-08-19T22:55:17.563Z,19.89
2022-08-19T23:00:21.856Z,19.81
2022-08-19T23:05:42.968Z,19.78
2022-08-19T23:10:45.411Z,19.52
2022-08-19T23:15:47.788Z,19.58
2022-08-19T23:20:50.765Z,19.32
2022-08-19T23:25:54.552Z,19.62
2022-08-19T23:30:57.043Z,19.36
2022-08-19T23:36:02.510Z,19.15
2022-08-19T23:41:06.705Z,19.31
2022-08-19T23:46:10.839Z,19.13
2022-08-19T23:51:31.961Z,18.43
2022-08-19T23:56:53.945Z,19.07
